PDA

View Full Version : METAR for ENZV


Roxman
14-03-2009, 13:13
Trenger litt hjelp av drevner folk her. Igår var jeg på NAV tur med LN-DAG fra ZV til CN med retur. På returen opplevde jeg at det tettet seg skikkelig til rundt ZV å jeg måtte bli klarert inn med Special VFR med sikt på 2 km. og kraftig regn. Er det noen som kan spore opp METAR for ZV mellom 1720 og 1850:) Ønasker å vite hvordan forholdene var (i skriflig stand).

HVI
14-03-2009, 13:26
http://adds.aviationweather.noaa.gov/metars/

Velg f.eks "past 24 hours" i stedet for "most recent only"

Roxman
14-03-2009, 13:32
http://adds.aviationweather.noaa.gov/metars/

Velg f.eks "past 24 hours" i stedet for "most recent only"

Takker og været så slik ut:

ENZV 131720Z 24006KT 6000 -RA SCT005 BKN010 07/06 Q1014 TEMPO 4000 DZ BR BKN005

ikke noe veldig kjekt VFR vær:exclaimation

atck
14-03-2009, 20:35
ikke noe veldig kjekt VFR vær:exclaimation

Men hva sa taffen? Ikke for å prøve å henge ut noen, men det skulle vel neppe ha kommet som en overraskelse?

Kyrre

Roxman
14-03-2009, 23:44
Taffen vi hadde sa DZ og sikt på 6000 fra 19. Noe vi fant ut vi skulle klare. Ringte også til en FI på sola for å be om værrapport, og han sa det så veldig greit ut. Vi viste det ville komme, men ikke så fort. Men en lærer ikke før en handlig er utført, så nå vett vi litt mer, en før vi tok av:)